createdAt,value
2018-10-17T00:00:52.761Z,99.99
2018-10-17T00:01:51.040Z,99.99
2018-10-17T00:02:51.027Z,99.99
2018-10-17T00:03:51.843Z,99.99
2018-10-17T00:04:51.087Z,99.99
2018-10-17T00:05:50.959Z,99.99
2018-10-17T00:06:54.516Z,99.99
2018-10-17T00:07:51.173Z,99.82
2018-10-17T00:08:51.022Z,99.99
2018-10-17T00:09:51.703Z,99.91
2018-10-17T00:10:54.724Z,99.99
2018-10-17T00:11:51.748Z,99.99
2018-10-17T00:12:50.982Z,99.99
2018-10-17T00:13:51.882Z,99.99
2018-10-17T00:14:54.884Z,99.99
2018-10-17T00:15:50.969Z,99.99
2018-10-17T00:16:51.036Z,99.99
2018-10-17T00:17:52.579Z,99.99
2018-10-17T00:18:54.925Z,99.99
2018-10-17T00:19:51.685Z,99.99
2018-10-17T00:20:51.009Z,99.99
2018-10-17T00:21:54.397Z,99.99
2018-10-17T00:22:50.950Z,99.99
2018-10-17T00:23:50.996Z,99.99
2018-10-17T00:24:50.974Z,99.99
2018-10-17T00:25:54.858Z,99.99
2018-10-17T00:26:50.958Z,99.99
2018-10-17T00:27:54.350Z,99.99
2018-10-17T00:28:51.028Z,99.99
2018-10-17T00:29:50.981Z,99.99
2018-10-17T00:30:55.612Z,99.99
2018-10-17T00:31:50.975Z,99.99
2018-10-17T00:32:50.939Z,99.99
2018-10-17T00:33:51.691Z,99.99
2018-10-17T00:34:50.918Z,99.99
2018-10-17T00:35:50.933Z,99.99
2018-10-17T00:36:55.075Z,99.99
2018-10-17T00:37:50.908Z,99.99
2018-10-17T00:38:55.048Z,99.99
2018-10-17T00:39:52.320Z,99.99
2018-10-17T00:40:55.094Z,99.99
2018-10-17T00:41:50.954Z,99.99
2018-10-17T00:42:50.950Z,99.99
2018-10-17T00:43:52.373Z,99.99
2018-10-17T00:44:50.927Z,99.99
2018-10-17T00:45:50.923Z,99.99
2018-10-17T00:46:52.411Z,99.99
2018-10-17T00:47:50.896Z,99.99
2018-10-17T00:48:50.968Z,99.99
2018-10-17T00:49:52.379Z,99.99
2018-10-17T00:50:50.922Z,99.99
2018-10-17T00:51:50.890Z,99.99
2018-10-17T00:52:50.919Z,99.99
2018-10-17T00:53:50.886Z,99.99
2018-10-17T00:54:50.927Z,99.99
2018-10-17T00:55:50.880Z,99.99
2018-10-17T00:56:50.884Z,99.99
2018-10-17T00:57:52.654Z,99.99
2018-10-17T00:58:50.955Z,99.99
2018-10-17T00:59:51.874Z,99.99
2018-10-17T01:00:51.034Z,99.99
2018-10-17T01:01:50.905Z,99.99
2018-10-17T01:02:50.944Z,99.99
2018-10-17T01:03:51.895Z,99.99
2018-10-17T01:04:52.798Z,99.99
2018-10-17T01:05:50.825Z,99.99
2018-10-17T01:06:50.888Z,99.99
2018-10-17T01:07:51.558Z,99.99
2018-10-17T01:08:50.829Z,99.99
2018-10-17T01:09:50.816Z,99.99
2018-10-17T01:10:50.858Z,99.99
2018-10-17T01:11:50.823Z,99.99
2018-10-17T01:12:50.974Z,99.99
2018-10-17T01:13:50.854Z,99.99
2018-10-17T01:14:50.996Z,99.99
2018-10-17T01:15:50.827Z,99.99
2018-10-17T01:16:50.825Z,99.99
2018-10-17T01:17:50.994Z,99.99
2018-10-17T01:18:50.817Z,99.99
2018-10-17T01:19:51.684Z,99.99
2018-10-17T01:20:50.814Z,99.99
2018-10-17T01:21:50.815Z,99.99
2018-10-17T01:22:50.825Z,99.99
2018-10-17T01:23:50.825Z,99.99
2018-10-17T01:24:54.202Z,99.99
2018-10-17T01:25:51.572Z,99.99
2018-10-17T01:26:50.811Z,99.99
2018-10-17T01:27:51.861Z,99.99
2018-10-17T01:28:50.826Z,99.99
2018-10-17T01:29:50.856Z,99.99
2018-10-17T01:30:52.379Z,99.99
2018-10-17T01:31:52.237Z,99.99
2018-10-17T01:32:50.756Z,99.99
2018-10-17T01:33:50.796Z,99.99
2018-10-17T01:34:52.445Z,99.99
2018-10-17T01:35:51.460Z,99.99
2018-10-17T01:36:52.313Z,99.99
2018-10-17T01:37:51.493Z,99.99
2018-10-17T01:38:52.398Z,99.99
2018-10-17T01:39:51.500Z,99.99
2018-10-17T01:40:52.394Z,99.99
2018-10-17T01:41:51.487Z,99.99
2018-10-17T01:42:52.376Z,99.99
2018-10-17T01:43:51.496Z,99.99
2018-10-17T01:44:52.358Z,99.99
2018-10-17T01:45:51.444Z,99.99
2018-10-17T01:46:52.376Z,99.99
2018-10-17T01:47:51.467Z,99.99
2018-10-17T01:48:52.205Z,99.99
2018-10-17T01:49:52.102Z,99.99
2018-10-17T01:50:52.163Z,99.99
2018-10-17T01:51:52.394Z,99.99
2018-10-17T01:52:52.196Z,99.99
2018-10-17T01:53:51.771Z,99.99
2018-10-17T01:54:52.402Z,99.99
2018-10-17T01:55:52.248Z,99.99
2018-10-17T01:56:52.708Z,99.99
2018-10-17T01:57:52.156Z,99.99
2018-10-17T01:58:52.401Z,99.99
2018-10-17T01:59:52.377Z,99.99
2018-10-17T02:00:52.389Z,99.99
2018-10-17T02:01:52.374Z,99.99
2018-10-17T02:02:52.437Z,99.99
2018-10-17T02:03:52.409Z,99.99
2018-10-17T02:04:52.412Z,99.99
2018-10-17T02:05:51.872Z,99.99
2018-10-17T02:06:51.759Z,99.99
2018-10-17T02:07:51.753Z,99.99
2018-10-17T02:08:52.380Z,99.99
2018-10-17T02:09:52.473Z,99.99
2018-10-17T02:10:51.877Z,99.99
2018-10-17T02:11:52.439Z,99.99
2018-10-17T02:12:52.397Z,99.99
2018-10-17T02:13:52.379Z,99.99
2018-10-17T02:14:52.448Z,99.99
2018-10-17T02:15:51.875Z,99.99
2018-10-17T02:16:52.425Z,99.99
2018-10-17T02:17:52.397Z,99.99
2018-10-17T02:18:51.972Z,99.99
2018-10-17T02:19:51.903Z,99.99
2018-10-17T02:20:52.176Z,99.99
2018-10-17T02:21:52.374Z,99.99
2018-10-17T02:22:52.451Z,99.99
2018-10-17T02:23:51.882Z,99.99
2018-10-17T02:24:52.382Z,99.99
2018-10-17T02:25:52.451Z,99.99
2018-10-17T02:26:52.361Z,99.99
2018-10-17T02:27:52.204Z,99.99
2018-10-17T02:28:54.100Z,99.99
2018-10-17T02:29:52.478Z,99.99
2018-10-17T02:30:52.693Z,99.99
2018-10-17T02:31:52.422Z,99.99
2018-10-17T02:32:52.314Z,99.99
2018-10-17T02:33:51.955Z,99.99
2018-10-17T02:34:52.201Z,99.99
2018-10-17T02:35:52.210Z,99.99
2018-10-17T02:36:52.227Z,99.99
2018-10-17T02:37:51.896Z,99.99
2018-10-17T02:38:52.293Z,99.99
2018-10-17T02:39:52.207Z,99.99
2018-10-17T02:40:52.237Z,99.99
2018-10-17T02:41:52.179Z,99.99
2018-10-17T02:42:52.250Z,99.99
2018-10-17T02:43:52.200Z,99.99
2018-10-17T02:44:52.199Z,99.99
2018-10-17T02:45:51.635Z,99.99
2018-10-17T02:46:52.253Z,99.99
2018-10-17T02:47:52.242Z,99.99
2018-10-17T02:48:51.765Z,99.99
2018-10-17T02:49:52.246Z,99.99
2018-10-17T02:50:54.054Z,99.99
2018-10-17T02:51:52.252Z,99.99
2018-10-17T02:52:51.911Z,99.99
2018-10-17T02:53:52.241Z,99.99
2018-10-17T02:54:52.246Z,99.99
2018-10-17T02:55:52.247Z,99.99
2018-10-17T02:56:50.545Z,99.99
2018-10-17T02:57:51.726Z,99.99
2018-10-17T02:58:52.236Z,99.99
2018-10-17T02:59:52.254Z,99.99
2018-10-17T03:00:52.301Z,99.99
2018-10-17T03:01:52.255Z,99.99
2018-10-17T03:02:52.261Z,99.99
2018-10-17T03:03:54.123Z,99.99
2018-10-17T03:04:52.216Z,99.99
2018-10-17T03:05:52.890Z,99.99
2018-10-17T03:06:51.663Z,99.99
2018-10-17T03:07:52.229Z,99.99
2018-10-17T03:08:52.208Z,99.99
2018-10-17T03:09:52.017Z,99.99
2018-10-17T03:10:51.898Z,99.99
2018-10-17T03:11:52.776Z,99.99
2018-10-17T03:12:58.951Z,99.99
2018-10-17T03:13:52.175Z,99.99
2018-10-17T03:14:51.628Z,99.99
2018-10-17T03:15:51.582Z,99.99
2018-10-17T03:16:51.635Z,99.99
2018-10-17T03:17:52.424Z,99.99
2018-10-17T03:18:51.965Z,99.99
2018-10-17T03:19:51.655Z,99.99
2018-10-17T03:20:52.246Z,99.99
2018-10-17T03:21:52.456Z,99.99
2018-10-17T03:22:52.224Z,99.99
2018-10-17T03:23:53.995Z,99.99
2018-10-17T03:24:53.960Z,99.99
2018-10-17T03:25:51.993Z,99.99
2018-10-17T03:26:51.892Z,99.99
2018-10-17T03:27:51.946Z,99.99
2018-10-17T03:28:53.730Z,99.99
2018-10-17T03:29:53.713Z,99.99
2018-10-17T03:30:53.933Z,99.99
2018-10-17T03:31:53.752Z,99.99
2018-10-17T03:32:53.709Z,99.99
2018-10-17T03:33:53.704Z,99.99
2018-10-17T03:34:53.856Z,99.99
2018-10-17T03:35:54.004Z,99.99
2018-10-17T03:36:53.773Z,99.99
2018-10-17T03:37:53.894Z,99.99
2018-10-17T03:38:52.263Z,99.99
2018-10-17T03:39:51.852Z,99.99
2018-10-17T03:40:51.863Z,99.99
2018-10-17T03:41:52.520Z,99.99
2018-10-17T03:42:51.923Z,99.99
2018-10-17T03:43:51.585Z,99.99
2018-10-17T03:44:51.902Z,99.99
2018-10-17T03:45:51.697Z,99.99
2018-10-17T03:46:51.996Z,99.99
2018-10-17T03:47:52.169Z,99.99
2018-10-17T03:48:51.760Z,99.99
2018-10-17T03:49:51.818Z,99.99
2018-10-17T03:50:51.750Z,99.99
2018-10-17T03:51:51.906Z,99.99
2018-10-17T03:52:52.244Z,99.99
2018-10-17T03:53:51.535Z,99.99
2018-10-17T03:54:51.545Z,99.99
2018-10-17T03:55:51.466Z,99.99
2018-10-17T03:56:51.463Z,99.99
2018-10-17T03:57:51.815Z,99.99
2018-10-17T03:58:51.840Z,99.99
2018-10-17T03:59:51.907Z,99.99
2018-10-17T04:00:51.930Z,99.99
2018-10-17T04:01:51.910Z,99.99
2018-10-17T04:02:52.300Z,99.99
2018-10-17T04:03:51.821Z,99.99
2018-10-17T04:04:51.820Z,99.99
2018-10-17T04:05:51.798Z,99.99
2018-10-17T04:06:51.900Z,99.99
2018-10-17T04:07:51.807Z,99.99
2018-10-17T04:08:51.861Z,99.99
2018-10-17T04:09:53.961Z,99.99
2018-10-17T04:10:51.424Z,99.99
2018-10-17T04:11:51.766Z,99.99
2018-10-17T04:12:51.939Z,99.99
2018-10-17T04:13:51.944Z,99.99
2018-10-17T04:14:51.899Z,99.99
2018-10-17T04:15:51.922Z,99.99
2018-10-17T04:16:51.938Z,99.99
2018-10-17T04:17:51.926Z,99.99
2018-10-17T04:18:52.228Z,99.99
2018-10-17T04:19:51.453Z,99.99
2018-10-17T04:20:51.912Z,99.99
2018-10-17T04:21:53.916Z,99.99
2018-10-17T04:22:51.941Z,99.99
2018-10-17T04:23:51.475Z,99.99
2018-10-17T04:24:51.829Z,99.99
2018-10-17T04:25:51.942Z,99.99
2018-10-17T04:26:51.787Z,99.99
2018-10-17T04:27:52.141Z,99.99
2018-10-17T04:28:51.931Z,99.99
2018-10-17T04:29:51.964Z,99.99
2018-10-17T04:30:51.932Z,99.99
2018-10-17T04:31:51.918Z,99.99
2018-10-17T04:32:52.279Z,99.99
2018-10-17T04:33:52.269Z,99.99
2018-10-17T04:34:52.430Z,99.99
2018-10-17T04:35:51.966Z,99.99
2018-10-17T04:36:52.424Z,99.99
2018-10-17T04:37:51.969Z,99.99
2018-10-17T04:38:53.913Z,99.99
2018-10-17T04:39:51.918Z,99.99
2018-10-17T04:40:51.953Z,99.99
2018-10-17T04:41:52.015Z,99.99
2018-10-17T04:42:52.032Z,99.99
2018-10-17T04:43:51.989Z,99.99
2018-10-17T04:44:52.002Z,99.99
2018-10-17T04:45:51.851Z,99.99
2018-10-17T04:46:51.836Z,99.99
2018-10-17T04:47:51.965Z,99.99
2018-10-17T04:48:52.010Z,99.99
2018-10-17T04:49:51.987Z,99.99
2018-10-17T04:50:51.774Z,99.99
2018-10-17T04:51:51.415Z,99.99
2018-10-17T04:52:51.878Z,99.99
2018-10-17T04:53:51.913Z,99.99
2018-10-17T04:54:51.962Z,99.99
2018-10-17T04:55:51.937Z,99.99
2018-10-17T04:56:51.716Z,99.99
2018-10-17T04:57:51.914Z,99.99
2018-10-17T04:58:51.947Z,99.99
2018-10-17T04:59:51.968Z,99.99
2018-10-17T05:00:51.747Z,99.99
2018-10-17T05:01:51.936Z,99.99
2018-10-17T05:02:52.022Z,99.99
2018-10-17T05:03:51.915Z,99.99
2018-10-17T05:04:51.789Z,99.99
2018-10-17T05:05:51.968Z,99.99
2018-10-17T05:06:54.331Z,99.99
2018-10-17T05:07:52.021Z,99.99
2018-10-17T05:08:51.916Z,99.99
2018-10-17T05:09:51.947Z,99.99
2018-10-17T05:10:51.962Z,99.99
2018-10-17T05:11:52.278Z,99.99
2018-10-17T05:12:51.750Z,99.99
2018-10-17T05:13:51.759Z,99.99
2018-10-17T05:14:51.716Z,99.99
2018-10-17T05:15:51.923Z,99.99
2018-10-17T05:16:52.398Z,99.99
2018-10-17T05:17:51.780Z,99.99
2018-10-17T05:18:51.990Z,99.99
2018-10-17T05:19:51.969Z,99.99
2018-10-17T05:20:51.943Z,99.99
2018-10-17T05:21:51.954Z,99.99
2018-10-17T05:22:51.957Z,99.99
2018-10-17T05:23:51.973Z,99.99
2018-10-17T05:24:51.792Z,99.99
2018-10-17T05:25:51.778Z,99.99
2018-10-17T05:26:51.385Z,99.99
2018-10-17T05:27:51.750Z,99.99
2018-10-17T05:28:53.552Z,99.99
2018-10-17T05:29:51.830Z,99.99
2018-10-17T05:30:51.934Z,99.99
2018-10-17T05:31:52.224Z,99.99
2018-10-17T05:32:51.930Z,99.99
2018-10-17T05:33:51.951Z,99.99
2018-10-17T05:34:51.998Z,99.99
2018-10-17T05:35:51.946Z,99.99
2018-10-17T05:36:51.940Z,99.99
2018-10-17T05:37:51.866Z,99.99
2018-10-17T05:38:51.932Z,99.99
2018-10-17T05:39:51.793Z,99.99
2018-10-17T05:40:51.494Z,99.99
2018-10-17T05:41:52.036Z,99.99
2018-10-17T05:42:51.560Z,99.99
2018-10-17T05:43:52.029Z,99.99
2018-10-17T05:44:51.473Z,99.99
2018-10-17T05:45:52.027Z,99.99
2018-10-17T05:46:51.998Z,99.99
2018-10-17T05:47:51.931Z,99.99
2018-10-17T05:48:51.982Z,99.99
2018-10-17T05:49:52.159Z,99.99
2018-10-17T05:50:52.388Z,99.99
2018-10-17T05:51:51.986Z,99.99
2018-10-17T05:52:52.422Z,99.99
2018-10-17T05:53:51.474Z,99.99
2018-10-17T05:54:52.046Z,99.99
2018-10-17T05:55:52.293Z,99.99
2018-10-17T05:56:51.977Z,99.99
2018-10-17T05:57:51.288Z,99.99
2018-10-17T05:58:51.562Z,99.99
2018-10-17T05:59:53.402Z,99.99
2018-10-17T06:03:24.617Z,99.99
2018-10-17T06:04:24.482Z,99.99
2018-10-17T06:06:19.168Z,99.99
2018-10-17T06:07:21.578Z,99.99
2018-10-17T06:09:14.109Z,99.99
2018-10-17T06:10:14.345Z,99.99
2018-10-17T06:12:08.768Z,99.99
2018-10-17T06:13:08.931Z,99.99
2018-10-17T06:15:03.409Z,99.99
2018-10-17T06:16:03.507Z,99.99
2018-10-17T06:17:57.278Z,99.99
2018-10-17T06:18:58.282Z,99.99
2018-10-17T06:20:52.919Z,99.99
2018-10-17T06:21:52.982Z,99.99
2018-10-17T06:22:52.928Z,99.99
2018-10-17T06:23:52.947Z,99.99
2018-10-17T06:24:52.429Z,99.99
2018-10-17T06:25:52.937Z,99.99
2018-10-17T06:26:52.778Z,99.99
2018-10-17T06:27:52.920Z,99.99
2018-10-17T06:28:52.830Z,99.99
2018-10-17T06:29:52.941Z,99.99
2018-10-17T06:31:13.517Z,99.99
2018-10-17T06:32:52.403Z,99.99
2018-10-17T06:34:47.104Z,99.99
2018-10-17T06:35:47.094Z,99.99
2018-10-17T06:39:32.156Z,99.99
2018-10-17T06:40:30.845Z,99.99
2018-10-17T06:42:32.472Z,99.99
2018-10-17T06:43:26.588Z,99.99
2018-10-17T06:44:47.522Z,99.99
2018-10-17T06:48:51.935Z,99.99
2018-10-17T06:50:06.691Z,99.99
2018-10-17T06:50:58.779Z,99.99
2018-10-17T06:51:59.777Z,99.99
2018-10-17T06:53:26.748Z,99.99
2018-10-17T06:53:51.931Z,99.99
2018-10-17T06:54:51.025Z,99.99
2018-10-17T06:58:25.055Z,99.99
2018-10-17T07:00:34.334Z,99.99
2018-10-17T07:01:55.841Z,99.99
2018-10-17T07:02:35.027Z,99.99
2018-10-17T07:05:21.817Z,99.99
2018-10-17T07:06:23.296Z,99.99
2018-10-17T07:08:42.889Z,99.99
2018-10-17T07:11:28.372Z,99.99
2018-10-17T07:14:29.283Z,99.99
2018-10-17T07:18:05.634Z,99.99
2018-10-17T07:22:16.451Z,99.99
2018-10-17T07:25:06.195Z,99.99
2018-10-17T07:26:42.116Z,99.99
2018-10-17T07:29:44.069Z,99.99
2018-10-17T07:34:41.608Z,99.99
2018-10-17T07:35:44.040Z,99.99
2018-10-17T07:36:48.570Z,99.99
2018-10-17T07:47:32.598Z,99.99
2018-10-17T07:53:40.097Z,98.28
2018-10-17T07:54:41.111Z,98.00
2018-10-17T07:57:07.613Z,98.24
2018-10-17T07:59:49.309Z,97.56
2018-10-17T08:01:24.671Z,97.76
2018-10-17T08:01:49.222Z,97.76
2018-10-17T08:02:48.822Z,97.47
2018-10-17T08:03:49.371Z,97.85
2018-10-17T08:04:48.760Z,97.76
2018-10-17T08:05:53.009Z,96.89
2018-10-17T08:07:24.149Z,97.28
2018-10-17T08:07:49.016Z,96.75
2018-10-17T08:08:48.096Z,96.18
2018-10-17T08:09:48.718Z,95.56
2018-10-17T08:10:48.776Z,94.98
2018-10-17T08:11:50.098Z,94.79
2018-10-17T08:12:49.256Z,94.89
2018-10-17T08:13:49.831Z,94.79
2018-10-17T08:14:48.725Z,94.35
2018-10-17T08:17:23.283Z,94.26
2018-10-17T08:19:37.697Z,94.07
2018-10-17T08:21:38.341Z,93.49
2018-10-17T08:22:38.451Z,93.30
2018-10-17T08:23:38.490Z,93.30
2018-10-17T08:24:39.027Z,93.01
2018-10-17T08:25:36.974Z,93.11
2018-10-17T08:26:36.976Z,93.21
2018-10-17T08:27:37.046Z,92.91
2018-10-17T08:28:36.936Z,91.86
2018-10-17T08:29:36.948Z,92.24
2018-10-17T08:30:37.982Z,92.05
2018-10-17T08:31:36.959Z,91.77
2018-10-17T08:32:39.986Z,91.38
2018-10-17T08:33:36.947Z,91.57
2018-10-17T08:34:36.975Z,92.10
2018-10-17T08:35:37.088Z,91.72
2018-10-17T08:36:39.207Z,91.52
2018-10-17T08:37:37.375Z,91.52
2018-10-17T08:38:36.939Z,91.81
2018-10-17T08:39:36.999Z,91.33
2018-10-17T08:40:37.079Z,90.95
2018-10-17T08:41:37.053Z,90.37
2018-10-17T08:42:37.064Z,90.18
2018-10-17T08:43:38.973Z,90.47
2018-10-17T08:44:37.033Z,90.56
2018-10-17T08:45:36.933Z,91.14
2018-10-17T08:46:36.993Z,90.95
2018-10-17T08:47:36.929Z,90.85
2018-10-17T08:48:38.016Z,90.75
2018-10-17T08:49:36.954Z,90.56
2018-10-17T08:50:37.088Z,89.99
2018-10-17T08:51:36.927Z,90.28
2018-10-17T08:52:36.917Z,90.47
2018-10-17T08:53:37.052Z,90.56
2018-10-17T08:54:37.042Z,89.99
2018-10-17T08:55:36.924Z,90.08
2018-10-17T08:56:36.915Z,89.79
2018-10-17T08:57:36.984Z,89.70
2018-10-17T08:58:37.004Z,89.70
2018-10-17T08:59:37.550Z,89.89
2018-10-17T09:00:36.970Z,89.51
2018-10-17T09:01:36.938Z,89.65
2018-10-17T09:02:37.045Z,89.65
2018-10-17T09:05:22.266Z,89.46
2018-10-17T09:07:38.141Z,89.65
2018-10-17T09:08:36.779Z,89.65
2018-10-17T09:12:29.061Z,88.69
2018-10-17T09:13:09.859Z,88.73
2018-10-17T09:15:41.679Z,87.87
2018-10-17T09:17:21.555Z,87.39
2018-10-17T09:21:08.394Z,87.68
2018-10-17T09:22:04.573Z,87.10
2018-10-17T09:24:23.315Z,86.81
2018-10-17T09:26:13.106Z,86.14
2018-10-17T09:27:13.143Z,86.14
2018-10-17T09:29:11.952Z,86.28
2018-10-17T09:30:09.957Z,86.18
2018-10-17T09:32:03.134Z,85.13
2018-10-17T09:33:02.650Z,85.32
2018-10-17T09:35:02.841Z,84.94
2018-10-17T09:37:12.154Z,84.74
2018-10-17T09:41:00.184Z,84.21
2018-10-17T09:42:00.079Z,84.30
2018-10-17T09:44:14.248Z,83.15
2018-10-17T09:45:46.737Z,82.61
2018-10-17T09:48:00.967Z,81.46
2018-10-17T09:49:02.258Z,82.04
2018-10-17T09:55:37.639Z,79.67
2018-10-17T09:56:41.765Z,78.90
2018-10-17T09:58:33.398Z,78.36
2018-10-17T09:59:32.911Z,79.03
2018-10-17T10:01:41.748Z,78.81
2018-10-17T10:02:26.058Z,78.75
2018-10-17T10:04:26.757Z,77.98
2018-10-17T10:06:38.509Z,77.50
2018-10-17T10:09:13.367Z,76.57
2018-10-17T10:11:04.436Z,75.13
2018-10-17T10:12:03.759Z,75.03
2018-10-17T10:14:37.237Z,74.20
2018-10-17T10:16:12.738Z,74.10
2018-10-17T10:17:13.256Z,72.79
2018-10-17T10:19:12.808Z,71.96
2018-10-17T10:21:22.011Z,71.19
2018-10-17T10:23:57.771Z,69.97
2018-10-17T10:24:38.383Z,68.17
2018-10-17T10:26:33.003Z,66.94
2018-10-17T10:27:52.451Z,66.11
2018-10-17T10:29:25.633Z,64.27
2018-10-17T10:31:48.072Z,61.92
2018-10-17T10:33:56.517Z,60.52
2018-10-17T10:36:09.260Z,56.83
2018-10-17T10:37:09.103Z,55.21
2018-10-17T10:39:06.805Z,54.63
2018-10-17T10:40:21.995Z,54.66
2018-10-17T10:41:07.297Z,53.32
2018-10-17T10:42:12.131Z,52.31
2018-10-17T10:44:48.500Z,50.60
2018-10-17T10:47:19.094Z,48.32
2018-10-17T10:49:10.481Z,47.27
2018-10-17T10:51:26.033Z,46.10
2018-10-17T10:52:28.387Z,45.71
2018-10-17T10:54:19.696Z,45.25
2018-10-17T10:57:01.577Z,41.35
2018-10-17T10:59:21.875Z,39.45
2018-10-17T11:01:44.366Z,38.60
2018-10-17T11:04:01.230Z,38.02
2018-10-17T11:04:38.999Z,37.82
2018-10-17T11:06:57.571Z,36.29
2018-10-17T11:07:31.062Z,37.73
2018-10-17T11:09:25.338Z,38.10
2018-10-17T11:10:25.705Z,38.49
2018-10-17T11:12:24.765Z,39.23
2018-10-17T11:14:41.946Z,40.25
2018-10-17T11:16:49.598Z,42.38
2018-10-17T11:20:02.606Z,42.16
2018-10-17T11:22:09.067Z,40.19
2018-10-17T11:22:57.352Z,39.61
2018-10-17T11:27:04.646Z,41.19
2018-10-17T11:29:01.740Z,43.57
2018-10-17T11:31:01.864Z,45.18
2018-10-17T11:32:02.104Z,44.64
2018-10-17T11:33:53.232Z,45.37
2018-10-17T11:34:53.158Z,44.73
2018-10-17T11:36:46.307Z,41.50
2018-10-17T11:37:46.323Z,41.28
2018-10-17T11:39:42.831Z,42.83
2018-10-17T11:40:41.878Z,42.73
2018-10-17T11:42:36.612Z,40.19
2018-10-17T11:43:36.790Z,39.54
2018-10-17T11:45:31.620Z,36.58
2018-10-17T11:46:29.874Z,35.31
2018-10-17T11:48:28.409Z,36.94
2018-10-17T11:49:24.068Z,35.97
2018-10-17T11:51:18.737Z,36.92
2018-10-17T11:52:18.758Z,37.96
2018-10-17T11:54:14.093Z,38.75
2018-10-17T11:55:13.001Z,38.65
2018-10-17T11:57:08.256Z,38.92
2018-10-17T11:58:09.089Z,38.92
2018-10-17T12:00:01.457Z,39.41
2018-10-17T12:01:01.517Z,40.19
2018-10-17T12:02:59.414Z,40.48
2018-10-17T12:03:56.281Z,42.40
2018-10-17T12:05:50.767Z,43.62
2018-10-17T12:06:50.327Z,44.49
2018-10-17T12:08:44.910Z,44.30
2018-10-17T12:09:44.909Z,44.92
2018-10-17T12:11:41.831Z,45.21
2018-10-17T12:12:40.320Z,45.87
2018-10-17T12:14:34.450Z,46.55
2018-10-17T12:15:33.654Z,46.33
2018-10-17T12:17:27.565Z,47.01
2018-10-17T12:18:29.496Z,47.11
2018-10-17T12:20:21.690Z,47.30
2018-10-17T12:21:22.496Z,47.69
2018-10-17T12:23:15.969Z,48.05
2018-10-17T12:24:16.065Z,48.44
2018-10-17T12:26:10.067Z,48.54
2018-10-17T12:27:10.193Z,48.54
2018-10-17T12:29:05.526Z,48.73
2018-10-17T12:30:05.506Z,48.73
2018-10-17T12:32:00.958Z,48.93
2018-10-17T12:32:59.711Z,48.90
2018-10-17T12:34:54.803Z,48.93
2018-10-17T12:35:54.786Z,48.83
2018-10-17T12:37:49.468Z,49.80
2018-10-17T12:38:50.394Z,48.64
2018-10-17T12:40:42.695Z,49.32
2018-10-17T12:41:44.129Z,49.12
2018-10-17T12:43:36.730Z,49.22
2018-10-17T12:44:37.802Z,49.22
2018-10-17T12:46:33.367Z,49.12
2018-10-17T12:47:32.028Z,49.32
2018-10-17T12:49:26.760Z,49.71
2018-10-17T12:50:29.534Z,50.19
2018-10-17T12:52:19.705Z,49.71
2018-10-17T12:53:19.469Z,49.51
2018-10-17T12:55:13.653Z,49.24
2018-10-17T12:56:13.535Z,48.54
2018-10-17T12:58:09.777Z,48.08
2018-10-17T12:59:09.295Z,48.10
2018-10-17T13:01:03.920Z,47.74
2018-10-17T13:02:04.520Z,47.15
2018-10-17T13:03:58.259Z,47.23
2018-10-17T13:04:58.577Z,48.10
2018-10-17T13:05:58.148Z,48.49
2018-10-17T13:06:58.272Z,48.10
2018-10-17T13:07:58.704Z,47.88
2018-10-17T13:08:57.928Z,48.68
2018-10-17T13:09:58.647Z,48.66
2018-10-17T13:10:58.742Z,48.66
2018-10-17T13:11:58.510Z,49.37
2018-10-17T13:12:59.161Z,48.49
2018-10-17T13:13:58.135Z,49.54
2018-10-17T13:14:59.110Z,49.61
2018-10-17T13:15:59.104Z,49.32
2018-10-17T13:16:59.162Z,49.92
2018-10-17T13:17:59.006Z,49.61
2018-10-17T13:18:58.152Z,49.32
2018-10-17T13:19:58.150Z,49.61
2018-10-17T13:20:58.720Z,49.97
2018-10-17T13:21:58.711Z,50.19
2018-10-17T13:22:58.696Z,49.29
2018-10-17T13:23:58.596Z,49.99
2018-10-17T13:24:59.116Z,49.97
2018-10-17T13:25:58.555Z,50.07
2018-10-17T13:26:58.590Z,49.99
2018-10-17T13:27:58.478Z,50.58
2018-10-17T13:28:58.680Z,50.38
2018-10-17T13:29:58.729Z,50.48
2018-10-17T13:30:59.030Z,50.68
2018-10-17T13:31:58.664Z,50.77
2018-10-17T13:32:59.000Z,51.28
2018-10-17T13:33:58.724Z,51.45
2018-10-17T13:34:58.764Z,50.38
2018-10-17T13:35:58.623Z,50.29
2018-10-17T13:36:58.715Z,50.87
2018-10-17T13:37:58.657Z,50.48
2018-10-17T13:38:58.673Z,50.09
2018-10-17T13:39:58.712Z,52.33
2018-10-17T13:40:58.817Z,52.03
2018-10-17T13:41:59.076Z,51.45
2018-10-17T13:42:59.093Z,51.72
2018-10-17T13:43:59.518Z,52.01
2018-10-17T13:44:58.669Z,52.59
2018-10-17T13:45:58.728Z,52.20
2018-10-17T13:46:59.229Z,52.01
2018-10-17T13:47:58.669Z,51.21
2018-10-17T13:48:59.045Z,50.84
2018-10-17T13:49:58.745Z,50.74
2018-10-17T13:50:59.014Z,50.72
2018-10-17T13:52:00.722Z,50.36
2018-10-17T13:52:59.264Z,50.74
2018-10-17T13:53:59.167Z,49.97
2018-10-17T13:55:01.115Z,49.97
2018-10-17T13:56:00.673Z,49.87
2018-10-17T13:56:58.672Z,50.84
2018-10-17T13:58:00.776Z,51.23
2018-10-17T13:58:58.699Z,51.33
2018-10-17T13:59:59.180Z,51.21
2018-10-17T14:01:01.082Z,52.47
2018-10-17T14:01:59.241Z,51.40
2018-10-17T14:03:00.672Z,52.47
2018-10-17T14:04:00.720Z,53.34
2018-10-17T14:04:58.709Z,52.28
2018-10-17T14:05:58.697Z,52.93
2018-10-17T14:07:00.794Z,53.12
2018-10-17T14:07:58.904Z,52.56
2018-10-17T14:08:59.071Z,53.15
2018-10-17T14:09:59.238Z,53.12
2018-10-17T14:10:59.148Z,53.53
2018-10-17T14:12:00.809Z,53.70
2018-10-17T14:12:58.683Z,53.70
2018-10-17T14:13:59.229Z,53.41
2018-10-17T14:15:00.756Z,53.51
2018-10-17T14:16:00.678Z,53.51
2018-10-17T14:16:58.398Z,53.12
2018-10-17T14:17:58.796Z,53.70
2018-10-17T14:19:00.808Z,53.44
2018-10-17T14:20:00.689Z,53.70
2018-10-17T14:21:00.784Z,52.83
2018-10-17T14:21:58.696Z,53.51
2018-10-17T14:22:58.685Z,52.44
2018-10-17T14:24:01.618Z,52.34
2018-10-17T14:24:58.692Z,52.06
2018-10-17T14:25:59.183Z,52.64
2018-10-17T14:26:59.776Z,53.12
2018-10-17T14:27:59.514Z,53.31
2018-10-17T14:28:59.997Z,54.28
2018-10-17T14:29:59.554Z,53.22
2018-10-17T14:32:56.026Z,53.22
2018-10-17T14:33:55.655Z,52.06
2018-10-17T14:34:56.586Z,52.25
2018-10-17T14:35:56.058Z,52.34
2018-10-17T14:36:56.491Z,53.51
2018-10-17T14:37:55.759Z,53.22
2018-10-17T14:38:56.178Z,53.49
2018-10-17T14:39:56.253Z,53.19
2018-10-17T14:40:55.835Z,54.26
2018-10-17T14:41:56.664Z,54.06
2018-10-17T14:42:58.080Z,54.94
2018-10-17T14:43:56.017Z,55.04
2018-10-17T14:44:56.561Z,54.35
2018-10-17T14:45:55.780Z,55.68
2018-10-17T14:46:56.523Z,55.13
2018-10-17T14:47:55.751Z,55.22
2018-10-17T14:48:56.124Z,54.74
2018-10-17T14:49:56.595Z,55.04
2018-10-17T14:50:56.234Z,54.94
2018-10-17T14:51:56.717Z,54.55
2018-10-17T14:52:55.742Z,55.00
2018-10-17T14:53:55.844Z,53.55
2018-10-17T14:54:56.674Z,53.65
2018-10-17T14:55:56.727Z,54.23
2018-10-17T14:56:56.602Z,54.03
2018-10-17T14:57:56.077Z,55.20
2018-10-17T14:58:56.231Z,54.91
2018-10-17T14:59:55.668Z,55.49
2018-10-17T15:00:56.633Z,55.94
2018-10-17T15:01:55.992Z,56.62
2018-10-17T15:02:56.215Z,56.65
2018-10-17T15:03:56.177Z,56.16
2018-10-17T15:04:56.616Z,56.26
2018-10-17T15:05:56.223Z,56.62
2018-10-17T15:06:56.037Z,57.40
2018-10-17T15:07:56.256Z,57.20
2018-10-17T15:08:55.744Z,57.01
2018-10-17T15:09:56.110Z,58.17
2018-10-17T15:10:56.265Z,58.07
2018-10-17T15:11:55.808Z,58.44
2018-10-17T15:12:56.221Z,58.65
2018-10-17T15:13:56.211Z,58.53
2018-10-17T15:16:48.153Z,59.31
2018-10-17T15:19:09.522Z,59.98
2018-10-17T15:20:07.907Z,59.59
2018-10-17T15:21:07.772Z,59.40
2018-10-17T15:22:22.420Z,59.50
2018-10-17T15:23:07.978Z,59.86
2018-10-17T15:27:15.001Z,60.82
2018-10-17T15:28:15.347Z,60.63
2018-10-17T15:30:11.039Z,60.72
2018-10-17T15:31:09.815Z,61.30
2018-10-17T15:34:39.397Z,62.08
2018-10-17T15:35:38.470Z,62.05
2018-10-17T15:37:31.651Z,62.63
2018-10-17T15:38:32.592Z,62.73
2018-10-17T15:40:51.486Z,63.21
2018-10-17T15:41:44.575Z,63.40
2018-10-17T15:43:45.771Z,63.60
2018-10-17T15:44:39.807Z,63.60
2018-10-17T15:46:32.520Z,63.95
2018-10-17T15:47:34.693Z,64.43
2018-10-17T15:49:51.139Z,64.14
2018-10-17T15:51:40.946Z,63.95
2018-10-17T15:52:40.404Z,63.56
2018-10-17T15:54:52.183Z,64.43
2018-10-17T15:55:52.026Z,64.92